createdAt,value
2022-12-28T00:02:19.316Z,10.00
2022-12-28T00:04:48.205Z,8.25
2022-12-28T00:07:16.619Z,9.00
2022-12-28T00:09:45.091Z,9.00
2022-12-28T00:12:13.413Z,8.00
2022-12-28T00:14:41.714Z,11.25
2022-12-28T00:17:10.222Z,10.00
2022-12-28T00:19:38.608Z,11.75
2022-12-28T00:22:06.934Z,13.75
2022-12-28T00:24:35.961Z,14.75
2022-12-28T00:27:04.291Z,15.50
2022-12-28T00:29:32.644Z,15.25
2022-12-28T00:32:01.071Z,16.50
2022-12-28T00:34:29.454Z,17.00
2022-12-28T00:37:08.433Z,18.00
2022-12-28T00:39:41.880Z,20.00
2022-12-28T00:42:10.736Z,18.00
2022-12-28T00:44:39.138Z,19.75
2022-12-28T00:47:07.635Z,17.75
2022-12-28T00:49:35.996Z,15.00
2022-12-28T00:52:04.357Z,16.00
2022-12-28T00:54:32.719Z,18.00
2022-12-28T00:57:01.023Z,19.25
2022-12-28T00:59:29.360Z,19.00
2022-12-28T01:01:57.805Z,20.75
2022-12-28T01:04:26.191Z,12.25
2022-12-28T01:06:54.510Z,12.75
2022-12-28T01:09:22.810Z,13.50
2022-12-28T01:11:51.212Z,12.75
2022-12-28T01:14:19.543Z,11.25
2022-12-28T01:16:47.956Z,11.00
2022-12-28T01:19:22.215Z,10.00
2022-12-28T01:21:52.125Z,6.50
2022-12-28T01:24:20.570Z,6.50
2022-12-28T01:26:48.879Z,6.00
2022-12-28T01:29:18.622Z,4.75
2022-12-28T01:31:47.032Z,6.00
2022-12-28T01:34:15.818Z,6.00
2022-12-28T01:36:44.266Z,6.00
2022-12-28T01:39:13.294Z,6.75
2022-12-28T01:41:43.615Z,7.00
2022-12-28T01:44:12.308Z,7.00
2022-12-28T01:47:02.094Z,6.00
2022-12-28T01:49:46.282Z,7.25
2022-12-28T01:52:29.593Z,6.00
2022-12-28T01:55:18.896Z,4.75
2022-12-28T01:57:53.541Z,5.00
2022-12-28T02:00:22.454Z,5.00
2022-12-28T02:02:59.067Z,6.00
2022-12-28T02:05:32.436Z,6.75
2022-12-28T02:08:25.576Z,5.00
2022-12-28T02:10:55.327Z,7.00
2022-12-28T02:13:26.129Z,6.25
2022-12-28T02:15:54.518Z,5.75
2022-12-28T02:18:26.259Z,6.00
2022-12-28T02:21:19.707Z,8.25
2022-12-28T02:24:18.387Z,8.00
2022-12-28T02:26:58.893Z,7.50
2022-12-28T02:29:50.095Z,9.00
2022-12-28T02:32:43.310Z,6.50
2022-12-28T02:35:39.267Z,8.00
2022-12-28T02:38:29.248Z,9.50
2022-12-28T02:41:14.017Z,7.00
2022-12-28T02:43:42.433Z,7.25
2022-12-28T02:46:36.199Z,6.00
2022-12-28T02:49:38.746Z,7.50
2022-12-28T02:52:15.904Z,8.75
2022-12-28T02:55:30.844Z,7.00
2022-12-28T02:58:08.263Z,7.25
2022-12-28T03:01:04.503Z,7.00
2022-12-28T03:03:47.935Z,7.50
2022-12-28T03:06:58.672Z,7.25
2022-12-28T03:09:46.296Z,6.75
2022-12-28T03:12:24.526Z,6.75
2022-12-28T03:15:35.308Z,7.00
2022-12-28T03:18:32.306Z,7.25
2022-12-28T03:21:24.569Z,7.00
2022-12-28T03:24:13.858Z,7.25
2022-12-28T03:27:06.594Z,5.25
2022-12-28T03:29:59.874Z,5.50
2022-12-28T03:32:28.608Z,6.25
2022-12-28T03:34:56.975Z,7.00
2022-12-28T03:37:33.474Z,7.25
2022-12-28T03:40:37.370Z,5.75
2022-12-28T03:43:34.677Z,7.00
2022-12-28T03:46:12.341Z,5.00
2022-12-28T03:48:41.746Z,6.00
2022-12-28T03:51:10.626Z,8.00
2022-12-28T03:53:43.957Z,5.00
2022-12-28T03:56:17.840Z,5.00
2022-12-28T03:58:46.789Z,7.00
2022-12-28T04:01:15.690Z,5.75
2022-12-28T04:03:44.700Z,5.00
2022-12-28T04:06:18.721Z,3.50
2022-12-28T04:08:48.500Z,4.00
2022-12-28T04:11:16.896Z,5.25
2022-12-28T04:13:45.481Z,3.50
2022-12-28T04:16:15.853Z,4.00
2022-12-28T04:18:44.637Z,4.00
2022-12-28T04:21:14.881Z,3.75
2022-12-28T04:23:44.461Z,2.75
2022-12-28T04:26:14.920Z,3.50
2022-12-28T04:28:43.746Z,3.25
2022-12-28T04:31:15.025Z,2.00
2022-12-28T04:33:43.420Z,4.25
2022-12-28T04:36:11.939Z,4.00
2022-12-28T04:38:40.637Z,3.00
2022-12-28T04:41:11.735Z,5.00
2022-12-28T04:43:41.211Z,5.00
2022-12-28T04:46:13.613Z,3.00
2022-12-28T04:48:42.743Z,4.00
2022-12-28T04:51:17.725Z,4.00
2022-12-28T04:53:46.135Z,4.25
2022-12-28T04:56:15.822Z,4.75
2022-12-28T04:58:44.660Z,4.50
2022-12-28T05:01:18.606Z,4.75
2022-12-28T05:03:55.483Z,5.25
2022-12-28T05:06:26.644Z,3.75
2022-12-28T05:08:56.177Z,3.00
2022-12-28T05:11:28.893Z,3.25
2022-12-28T05:13:58.109Z,3.00
2022-12-28T05:16:28.809Z,5.75
2022-12-28T05:18:58.535Z,4.00
2022-12-28T05:21:29.056Z,3.25
2022-12-28T05:23:57.849Z,3.75
2022-12-28T05:26:29.779Z,5.00
2022-12-28T05:28:59.600Z,3.00
2022-12-28T05:31:28.547Z,4.00
2022-12-28T05:33:56.905Z,4.25
2022-12-28T05:36:29.436Z,4.25
2022-12-28T05:38:58.035Z,5.50
2022-12-28T05:41:29.927Z,5.00
2022-12-28T05:44:00.159Z,4.00
2022-12-28T05:46:31.500Z,3.50
2022-12-28T05:49:00.283Z,3.25
2022-12-28T05:51:31.489Z,3.25
2022-12-28T05:54:01.091Z,3.00
2022-12-28T05:56:31.346Z,3.75
2022-12-28T05:59:07.975Z,3.75
2022-12-28T06:01:39.914Z,3.00
2022-12-28T06:04:14.740Z,3.00
2022-12-28T06:06:43.565Z,2.25
2022-12-28T06:09:12.056Z,2.00
2022-12-28T06:11:40.636Z,2.75
2022-12-28T06:14:09.300Z,2.50
2022-12-28T06:16:40.718Z,4.75
2022-12-28T06:19:13.076Z,2.25
2022-12-28T06:21:42.669Z,3.00
2022-12-28T06:24:12.744Z,1.25
2022-12-28T06:26:42.242Z,1.50
2022-12-28T06:29:11.237Z,1.75
2022-12-28T06:31:42.378Z,1.50
2022-12-28T06:34:11.307Z,2.00
2022-12-28T06:36:42.306Z,1.75
2022-12-28T06:39:13.594Z,2.00
2022-12-28T06:41:42.998Z,1.50
2022-12-28T06:44:13.608Z,1.50
2022-12-28T06:46:42.155Z,2.00
2022-12-28T06:49:10.724Z,3.00
2022-12-28T06:51:42.523Z,4.00
2022-12-28T06:54:12.336Z,2.50
2022-12-28T06:56:41.299Z,2.00
2022-12-28T06:59:09.763Z,2.50
2022-12-28T07:01:45.421Z,2.00
2022-12-28T07:04:13.890Z,2.00
2022-12-28T07:06:44.768Z,1.50
2022-12-28T07:09:16.454Z,1.00
2022-12-28T07:11:46.098Z,2.25
2022-12-28T07:14:14.580Z,2.00
2022-12-28T07:16:43.166Z,1.00
2022-12-28T07:19:11.524Z,1.75
2022-12-28T07:21:40.926Z,1.00
2022-12-28T07:24:09.887Z,1.75
2022-12-28T07:26:39.061Z,1.25
2022-12-28T07:29:08.921Z,2.25
2022-12-28T07:31:45.440Z,2.00
2022-12-28T07:34:16.457Z,1.00
2022-12-28T07:36:44.957Z,1.50
2022-12-28T07:39:13.510Z,3.75
2022-12-28T07:41:41.930Z,5.25
2022-12-28T07:44:10.267Z,3.00
2022-12-28T07:46:39.486Z,1.00
2022-12-28T07:49:08.701Z,3.25
2022-12-28T07:51:39.087Z,2.25
2022-12-28T07:54:08.263Z,1.50
2022-12-28T07:59:05.757Z,2.00
2022-12-28T08:01:36.273Z,5.00
2022-12-28T08:04:08.000Z,5.75
2022-12-28T08:06:39.658Z,5.50
2022-12-28T08:09:09.778Z,7.00
2022-12-28T08:11:40.893Z,6.00
2022-12-28T08:14:10.198Z,4.50
2022-12-28T08:16:44.627Z,4.00
2022-12-28T08:19:13.906Z,4.00
2022-12-28T08:21:46.367Z,4.50
2022-12-28T08:24:18.644Z,4.75
2022-12-28T08:26:48.589Z,3.50
2022-12-28T08:29:20.360Z,2.00
2022-12-28T08:31:49.722Z,4.00
2022-12-28T08:34:28.018Z,3.00
2022-12-28T08:36:57.351Z,4.50
2022-12-28T08:39:25.702Z,3.00
2022-12-28T08:41:54.070Z,4.75
2022-12-28T08:44:22.425Z,3.75
2022-12-28T08:46:50.889Z,3.00
2022-12-28T08:49:19.253Z,3.25
2022-12-28T08:51:47.613Z,4.50
2022-12-28T08:54:15.980Z,4.00
2022-12-28T08:56:46.070Z,5.25
2022-12-28T08:59:19.632Z,8.75
2022-12-28T09:01:49.414Z,4.25
2022-12-28T09:04:23.348Z,4.00
2022-12-28T09:06:51.805Z,4.00
2022-12-28T09:09:21.970Z,4.00
2022-12-28T09:11:51.171Z,3.00
2022-12-28T09:14:23.577Z,4.00
2022-12-28T09:16:54.711Z,2.00
2022-12-28T09:19:24.205Z,3.25
2022-12-28T09:21:54.061Z,3.50
2022-12-28T09:24:36.842Z,3.00
2022-12-28T09:27:05.181Z,2.25
2022-12-28T09:29:33.463Z,3.00
2022-12-28T09:32:02.482Z,2.00
2022-12-28T09:34:38.504Z,3.00
2022-12-28T09:37:08.785Z,2.50
2022-12-28T09:39:37.602Z,3.00
2022-12-28T09:42:24.983Z,2.75
2022-12-28T09:45:03.985Z,2.50
2022-12-28T09:47:48.235Z,3.00
2022-12-28T09:50:26.686Z,3.00
2022-12-28T09:53:18.314Z,3.75
2022-12-28T09:56:28.130Z,10.00
2022-12-28T09:58:57.343Z,10.00
2022-12-28T10:01:27.943Z,9.25
2022-12-28T10:03:58.029Z,10.25
2022-12-28T10:06:29.064Z,12.25
2022-12-28T10:09:03.382Z,13.75
2022-12-28T10:11:38.218Z,16.00
2022-12-28T10:14:21.475Z,14.25
2022-12-28T10:16:50.047Z,14.25
2022-12-28T10:19:25.721Z,15.25
2022-12-28T10:22:09.031Z,12.50
2022-12-28T10:24:40.123Z,14.00
2022-12-28T10:27:13.773Z,14.75
2022-12-28T10:29:44.115Z,11.75
2022-12-28T10:32:15.191Z,11.75
2022-12-28T10:34:59.961Z,11.00
2022-12-28T10:37:36.027Z,10.75
2022-12-28T10:40:10.966Z,8.50
2022-12-28T10:42:47.631Z,7.75
2022-12-28T10:45:22.761Z,8.25
2022-12-28T10:47:56.960Z,7.50
2022-12-28T10:50:47.425Z,6.25
2022-12-28T10:53:27.418Z,7.50
2022-12-28T10:56:28.815Z,9.75
2022-12-28T10:59:12.343Z,8.25
2022-12-28T11:01:43.131Z,8.00
2022-12-28T11:04:25.960Z,8.00
2022-12-28T11:07:02.839Z,7.25
2022-12-28T11:09:34.533Z,7.50
2022-12-28T11:12:42.757Z,6.25
2022-12-28T11:15:19.147Z,8.50
2022-12-28T11:20:42.689Z,7.00
2022-12-28T11:23:24.243Z,5.50
2022-12-28T11:25:53.180Z,7.25
2022-12-28T11:28:23.876Z,7.00
2022-12-28T11:30:53.837Z,9.50
2022-12-28T11:33:43.361Z,7.00
2022-12-28T11:36:26.710Z,5.50
2022-12-28T11:38:57.499Z,5.50
2022-12-28T11:41:30.333Z,7.75
2022-12-28T11:44:09.126Z,10.25
2022-12-28T11:46:39.056Z,16.00
2022-12-28T11:49:30.334Z,14.00
2022-12-28T11:52:17.198Z,18.25
2022-12-28T11:55:00.172Z,18.00
2022-12-28T11:57:42.943Z,18.75
2022-12-28T12:00:23.752Z,20.00
2022-12-28T12:02:58.741Z,18.75
2022-12-28T12:05:39.574Z,17.75
2022-12-28T12:08:16.628Z,17.25
2022-12-28T12:10:49.495Z,18.00
2022-12-28T12:13:27.129Z,18.75
2022-12-28T12:16:09.643Z,19.00
2022-12-28T12:18:56.816Z,17.50
2022-12-28T12:21:31.264Z,18.50
2022-12-28T12:24:11.377Z,18.25
2022-12-28T12:26:47.602Z,15.75
2022-12-28T12:29:18.609Z,20.75
2022-12-28T12:32:05.298Z,17.50
2022-12-28T12:34:51.283Z,19.00
2022-12-28T12:37:44.879Z,15.75
2022-12-28T12:40:43.011Z,17.00
2022-12-28T12:43:32.493Z,15.25
2022-12-28T12:46:22.397Z,16.75
2022-12-28T12:49:18.016Z,18.00
2022-12-28T12:52:00.714Z,17.75
2022-12-28T12:55:16.257Z,14.50
2022-12-28T12:57:47.530Z,15.25
2022-12-28T13:00:25.197Z,17.25
2022-12-28T13:03:11.871Z,18.00
2022-12-28T13:05:47.351Z,14.50
2022-12-28T13:08:33.431Z,19.00
2022-12-28T13:11:01.791Z,19.50
2022-12-28T13:13:34.029Z,18.50
2022-12-28T13:16:06.401Z,15.75
2022-12-28T13:18:50.671Z,17.50
2022-12-28T13:21:32.166Z,18.50
2022-12-28T13:24:06.155Z,18.75
2022-12-28T13:26:35.211Z,16.25
2022-12-28T13:29:09.474Z,19.00
2022-12-28T13:31:43.296Z,19.00
2022-12-28T13:34:14.592Z,17.75
2022-12-28T13:36:50.877Z,19.00
2022-12-28T13:39:21.684Z,19.00
2022-12-28T13:41:59.477Z,19.00
2022-12-28T13:44:30.880Z,15.75
2022-12-28T13:47:08.418Z,16.00
2022-12-28T13:49:46.478Z,17.50
2022-12-28T13:52:21.908Z,17.00
2022-12-28T13:54:54.962Z,15.50
2022-12-28T14:00:19.005Z,15.00
2022-12-28T14:02:49.091Z,14.50
2022-12-28T14:05:20.864Z,14.75
2022-12-28T14:07:51.229Z,18.25
2022-12-28T14:10:21.056Z,17.00
2022-12-28T14:12:51.524Z,15.50
2022-12-28T14:15:21.097Z,16.00
2022-12-28T14:17:51.903Z,14.75
2022-12-28T14:20:20.419Z,17.00
2022-12-28T14:22:48.881Z,14.00
2022-12-28T14:25:19.496Z,15.50
2022-12-28T14:27:57.249Z,14.75
2022-12-28T14:30:58.436Z,14.50
2022-12-28T14:33:29.507Z,13.50
2022-12-28T14:36:07.008Z,15.00
2022-12-28T14:38:51.241Z,15.75
2022-12-28T14:41:32.001Z,18.00
2022-12-28T14:44:04.630Z,19.00
2022-12-28T14:46:36.758Z,18.75
2022-12-28T14:49:28.349Z,19.25
2022-12-28T14:52:17.710Z,19.75
2022-12-28T14:54:48.775Z,19.50
2022-12-28T14:57:44.576Z,18.50
2022-12-28T15:00:24.199Z,19.00
2022-12-28T15:02:53.081Z,21.00
2022-12-28T15:05:45.847Z,19.00
2022-12-28T15:08:14.589Z,19.75
2022-12-28T15:10:50.139Z,17.75
2022-12-28T15:13:19.295Z,20.00
2022-12-28T15:15:58.897Z,18.00
2022-12-28T15:18:29.095Z,19.00
2022-12-28T15:20:58.317Z,19.00
2022-12-28T15:23:26.716Z,19.25
2022-12-28T15:25:55.044Z,17.00
2022-12-28T15:28:26.201Z,17.00
2022-12-28T15:31:05.956Z,18.00
2022-12-28T15:33:36.159Z,16.50
2022-12-28T15:36:17.852Z,16.75
2022-12-28T15:38:47.809Z,18.00
2022-12-28T15:41:35.886Z,16.00
2022-12-28T15:44:05.625Z,17.00
2022-12-28T15:46:34.681Z,14.25
2022-12-28T15:49:04.261Z,16.00
2022-12-28T15:51:32.618Z,14.75
2022-12-28T15:54:01.217Z,12.50
2022-12-28T15:56:32.537Z,16.00
2022-12-28T15:59:02.851Z,13.25
2022-12-28T16:01:33.024Z,13.50
2022-12-28T16:04:03.513Z,13.00
2022-12-28T16:06:37.067Z,11.00
2022-12-28T16:09:07.519Z,13.25
2022-12-28T16:11:35.918Z,13.75
2022-12-28T16:14:09.855Z,12.75
2022-12-28T16:16:40.305Z,13.75
2022-12-28T16:19:09.909Z,14.00
2022-12-28T16:21:38.251Z,13.75
2022-12-28T16:24:07.486Z,13.75
2022-12-28T16:26:36.174Z,14.25
2022-12-28T16:29:04.596Z,12.50
2022-12-28T16:31:35.908Z,14.00
2022-12-28T16:34:16.781Z,12.00
2022-12-28T16:36:47.678Z,10.75
2022-12-28T16:39:18.536Z,11.75
2022-12-28T16:41:46.985Z,11.25
2022-12-28T16:44:20.524Z,12.00
2022-12-28T16:46:50.163Z,9.00
2022-12-28T16:49:19.253Z,9.75
2022-12-28T16:51:48.445Z,11.50
2022-12-28T16:54:22.346Z,9.00
2022-12-28T16:56:51.948Z,10.75
2022-12-28T16:59:26.572Z,11.50
2022-12-28T17:01:56.793Z,10.75
2022-12-28T17:04:25.259Z,11.00
2022-12-28T17:06:54.291Z,11.75
2022-12-28T17:09:22.891Z,9.25
2022-12-28T17:14:38.540Z,9.25
2022-12-28T17:17:08.185Z,8.75
2022-12-28T17:19:37.286Z,8.00
2022-12-28T17:22:06.207Z,8.75
2022-12-28T17:24:34.883Z,9.00
2022-12-28T17:27:07.810Z,7.00
2022-12-28T17:29:38.256Z,6.75
2022-12-28T17:32:07.534Z,5.00
2022-12-28T17:34:35.972Z,6.00
2022-12-28T17:37:04.853Z,6.00
2022-12-28T17:39:39.687Z,8.25
2022-12-28T17:42:09.338Z,7.00
2022-12-28T17:44:37.688Z,6.00
2022-12-28T17:47:06.289Z,5.25
2022-12-28T17:49:34.589Z,6.00
2022-12-28T17:52:02.915Z,6.00
2022-12-28T17:54:31.216Z,5.75
2022-12-28T17:56:59.516Z,6.00
2022-12-28T17:59:27.935Z,6.00
2022-12-28T18:01:56.549Z,5.25
2022-12-28T18:04:25.028Z,5.00
2022-12-28T18:06:53.341Z,4.00
2022-12-28T18:09:27.347Z,4.75
2022-12-28T18:11:56.790Z,5.00
2022-12-28T18:14:25.932Z,4.00
2022-12-28T18:16:55.378Z,4.75
2022-12-28T18:19:23.755Z,4.50
2022-12-28T18:21:52.105Z,3.75
2022-12-28T18:24:21.816Z,3.25
2022-12-28T18:26:50.354Z,4.00
2022-12-28T18:29:18.724Z,4.00
2022-12-28T18:31:47.043Z,3.00
2022-12-28T18:34:15.427Z,3.00
2022-12-28T18:36:44.502Z,3.50
2022-12-28T18:39:12.817Z,4.50
2022-12-28T18:41:41.118Z,3.00
2022-12-28T18:44:09.498Z,4.00
2022-12-28T18:46:38.231Z,3.00
2022-12-28T18:49:06.604Z,3.00
2022-12-28T18:51:35.056Z,3.25
2022-12-28T18:54:03.346Z,4.25
2022-12-28T18:56:31.643Z,3.00
2022-12-28T18:58:59.972Z,2.25
2022-12-28T19:04:18.750Z,2.75
2022-12-28T19:06:47.292Z,4.00
2022-12-28T19:09:15.724Z,5.25
2022-12-28T19:11:44.943Z,4.25
2022-12-28T19:14:15.437Z,3.00
2022-12-28T19:16:45.103Z,4.00
2022-12-28T19:19:14.067Z,3.25
2022-12-28T19:21:43.385Z,3.50
2022-12-28T19:24:16.068Z,3.00
2022-12-28T19:26:45.184Z,3.25
2022-12-28T19:29:15.215Z,3.25
2022-12-28T19:31:44.091Z,3.00
2022-12-28T19:34:12.591Z,3.25
2022-12-28T19:36:40.921Z,4.50
2022-12-28T19:39:09.296Z,3.00
2022-12-28T19:41:37.736Z,3.00
2022-12-28T19:44:06.263Z,3.75
2022-12-28T19:46:34.724Z,4.00
2022-12-28T19:49:04.896Z,4.00
2022-12-28T19:51:33.899Z,3.00
2022-12-28T19:54:02.951Z,3.25
2022-12-28T19:56:32.090Z,3.00
2022-12-28T19:59:05.977Z,3.00
2022-12-28T20:01:36.773Z,3.00
2022-12-28T20:04:12.282Z,3.50
2022-12-28T20:06:42.577Z,4.75
2022-12-28T20:09:11.412Z,3.00
2022-12-28T20:11:39.793Z,4.25
2022-12-28T20:14:08.687Z,3.50
2022-12-28T20:16:37.184Z,3.25
2022-12-28T20:19:09.546Z,4.00
2022-12-28T20:21:39.670Z,2.00
2022-12-28T20:24:08.687Z,3.00
2022-12-28T20:26:37.275Z,2.25
2022-12-28T20:29:06.707Z,4.00
2022-12-28T20:31:35.171Z,2.75
2022-12-28T20:34:03.607Z,2.75
2022-12-28T20:36:34.668Z,2.00
2022-12-28T20:39:04.110Z,3.50
2022-12-28T20:41:52.274Z,4.00
2022-12-28T20:44:29.993Z,2.75
2022-12-28T20:46:59.505Z,3.50
2022-12-28T20:49:29.001Z,3.25
2022-12-28T20:51:57.354Z,3.50
2022-12-28T20:54:26.083Z,3.25
2022-12-28T20:56:56.146Z,4.00
2022-12-28T20:59:26.044Z,4.00
2022-12-28T21:01:55.237Z,4.00
2022-12-28T21:04:25.386Z,4.00
2022-12-28T21:06:55.280Z,2.50
2022-12-28T21:09:23.644Z,3.50
2022-12-28T21:11:52.102Z,5.00
2022-12-28T21:14:20.556Z,2.50
2022-12-28T21:16:49.330Z,4.75
2022-12-28T21:19:17.842Z,3.00
2022-12-28T21:21:46.267Z,4.00
2022-12-28T21:24:14.622Z,3.75
2022-12-28T21:26:42.947Z,3.25
2022-12-28T21:29:11.552Z,4.25
2022-12-28T21:31:40.016Z,3.25
2022-12-28T21:34:08.660Z,3.75
2022-12-28T21:36:37.022Z,4.00
2022-12-28T21:39:05.604Z,4.75
2022-12-28T21:41:52.200Z,3.75
2022-12-28T21:44:25.900Z,4.00
2022-12-28T21:46:55.139Z,3.75
2022-12-28T21:49:23.539Z,5.50
2022-12-28T21:51:52.395Z,5.00
2022-12-28T21:54:22.361Z,4.25
2022-12-28T21:56:56.181Z,3.50
2022-12-28T21:59:26.446Z,3.25
2022-12-28T22:02:13.681Z,6.00
2022-12-28T22:05:21.466Z,6.25
2022-12-28T22:08:10.591Z,5.25
2022-12-28T22:10:57.274Z,6.00
2022-12-28T22:13:25.549Z,5.75
2022-12-28T22:15:53.873Z,6.00
2022-12-28T22:21:14.269Z,6.75
2022-12-28T22:23:42.647Z,6.75
2022-12-28T22:26:11.137Z,7.00
2022-12-28T22:28:39.454Z,8.00
2022-12-28T22:31:08.929Z,6.25
2022-12-28T22:33:37.372Z,7.00
2022-12-28T22:36:20.040Z,7.00
2022-12-28T22:38:48.655Z,7.75
2022-12-28T22:41:17.035Z,7.75
2022-12-28T22:43:49.762Z,6.50
2022-12-28T22:46:18.528Z,6.00
2022-12-28T22:48:47.190Z,6.75
2022-12-28T22:51:17.384Z,6.50
2022-12-28T22:53:45.925Z,5.75
2022-12-28T22:56:20.938Z,11.00
2022-12-28T22:58:49.775Z,6.50
2022-12-28T23:01:20.659Z,8.00
2022-12-28T23:03:49.797Z,8.00
2022-12-28T23:06:20.540Z,8.00
2022-12-28T23:08:49.438Z,7.75
2022-12-28T23:11:37.749Z,8.00
2022-12-28T23:14:28.390Z,8.00
2022-12-28T23:16:56.797Z,7.75
2022-12-28T23:19:43.988Z,6.50
2022-12-28T23:22:37.612Z,10.00
2022-12-28T23:25:25.813Z,8.00
2022-12-28T23:27:54.102Z,8.50
2022-12-28T23:30:23.709Z,9.75
2022-12-28T23:32:53.476Z,10.25
2022-12-28T23:35:23.330Z,9.00
2022-12-28T23:37:51.760Z,9.25
2022-12-28T23:40:22.287Z,12.25
2022-12-28T23:42:51.409Z,10.75
2022-12-28T23:45:20.041Z,11.00
2022-12-28T23:47:48.700Z,11.50
2022-12-28T23:50:18.072Z,10.75
2022-12-28T23:52:46.702Z,12.50
2022-12-28T23:55:15.345Z,11.00
2022-12-28T23:57:43.656Z,11.25
